Time;durP1;ratioP1;P1;durP2;ratioP2;P2;SDS_P1;SDS_P2;PMS_P1;PMS_P2;Temp;Humidity;BMP_temperature;BMP_pressure;BME280_temperature;BME280_humidity;BME280_pressure;Samples;Min_cycle;Max_cycle;Signal;HPM_P1;HPM_P2
2023/05/07 00:01:38;;;;;;;4.00;1.40;;;;;;;;;;5043650;27;20413;-60
2023/05/07 00:04:05;;;;;;;5.25;1.58;;;;;;;;;;5044628;28;20492;-60
2023/05/07 00:06:33;;;;;;;8.50;1.80;;;;;;;;;;5037741;27;20032;-57
2023/05/07 00:09:00;;;;;;;6.53;1.77;;;;;;;;;;5046209;28;20047;-61
2023/05/07 00:11:27;;;;;;;7.45;1.80;;;;;;;;;;5047647;27;20032;-61
2023/05/07 00:13:54;;;;;;;5.07;1.58;;;;;;;;;;5047127;28;20461;-62
2023/05/07 00:16:21;;;;;;;5.22;1.85;;;;;;;;;;5044691;28;20045;-62
2023/05/07 00:18:48;;;;;;;7.47;1.83;;;;;;;;;;5043423;28;20396;-67
2023/05/07 00:21:15;;;;;;;4.25;1.70;;;;;;;;;;5046560;28;20107;-61
2023/05/07 00:23:41;;;;;;;6.70;1.80;;;;;;;;;;5045677;28;20106;-61
2023/05/07 00:26:08;;;;;;;5.90;1.65;;;;;;;;;;5044911;28;20068;-60
2023/05/07 00:28:34;;;;;;;4.75;1.67;;;;;;;;;;5045688;28;20095;-61
2023/05/07 00:31:01;;;;;;;5.57;1.73;;;;;;;;;;5043974;28;20041;-61
2023/05/07 00:33:28;;;;;;;7.03;1.75;;;;;;;;;;5044345;28;20124;-61
2023/05/07 00:35:54;;;;;;;5.05;1.70;;;;;;;;;;5045679;28;21373;-62
2023/05/07 00:38:21;;;;;;;6.68;1.90;;;;;;;;;;5043616;28;20033;-61
2023/05/07 00:40:48;;;;;;;5.15;1.63;;;;;;;;;;5045324;28;20409;-60
2023/05/07 00:43:14;;;;;;;4.10;1.70;;;;;;;;;;5046222;28;20076;-59
2023/05/07 00:45:41;;;;;;;5.45;2.10;;;;;;;;;;5044974;28;20041;-59
2023/05/07 00:48:08;;;;;;;4.88;1.70;;;;;;;;;;5046607;28;20044;-60
2023/05/07 00:50:34;;;;;;;5.60;1.67;;;;;;;;;;5046586;28;20123;-60
2023/05/07 00:53:02;;;;;;;6.10;1.98;;;;;;;;;;5046564;28;20042;-60
2023/05/07 00:55:29;;;;;;;6.55;1.90;;;;;;;;;;5045541;28;20060;-59
2023/05/07 00:57:56;;;;;;;5.43;2.00;;;;;;;;;;5048093;28;20050;-58
2023/05/07 01:00:22;;;;;;;3.83;1.60;;;;;;;;;;5047796;28;20095;-63
2023/05/07 01:02:49;;;;;;;4.00;1.70;;;;;;;;;;5048986;28;20059;-60
2023/05/07 01:05:18;;;;;;;5.60;1.52;;;;;;;;;;5049259;28;20703;-60
2023/05/07 01:07:45;;;;;;;4.68;1.70;;;;;;;;;;5046433;28;20037;-56
2023/05/07 01:10:12;;;;;;;4.97;2.28;;;;;;;;;;5044775;28;20173;-61
2023/05/07 01:12:40;;;;;;;7.78;2.03;;;;;;;;;;5046623;28;20111;-61
2023/05/07 01:15:08;;;;;;;4.65;1.70;;;;;;;;;;5046896;27;20064;-62
2023/05/07 01:17:38;;;;;;;5.65;1.73;;;;;;;;;;5045247;28;20052;-59
2023/05/07 01:20:07;;;;;;;5.25;1.63;;;;;;;;;;5045690;28;20123;-56
2023/05/07 01:22:33;;;;;;;7.47;2.15;;;;;;;;;;5043598;28;20055;-58
2023/05/07 01:25:01;;;;;;;6.78;1.90;;;;;;;;;;5044096;27;20043;-57
2023/05/07 01:27:28;;;;;;;6.63;2.00;;;;;;;;;;5043429;27;20041;-61
2023/05/07 01:29:58;;;;;;;4.45;1.77;;;;;;;;;;5046398;28;20298;-59
2023/05/07 01:32:29;;;;;;;7.03;2.10;;;;;;;;;;5045904;28;20048;-60
2023/05/07 01:34:57;;;;;;;7.35;2.17;;;;;;;;;;5060168;28;20164;-60
2023/05/07 01:37:24;;;;;;;7.95;2.13;;;;;;;;;;5058546;28;20064;-58
2023/05/07 01:39:51;;;;;;;4.80;2.05;;;;;;;;;;5044130;28;20443;-60
2023/05/07 01:42:18;;;;;;;7.15;2.42;;;;;;;;;;5059313;28;20044;-60
2023/05/07 01:44:45;;;;;;;4.20;2.20;;;;;;;;;;5043829;27;20132;-61
2023/05/07 01:47:12;;;;;;;7.95;2.20;;;;;;;;;;5043448;28;20178;-61
2023/05/07 01:49:39;;;;;;;4.95;2.38;;;;;;;;;;5045260;28;20168;-60
2023/05/07 01:52:06;;;;;;;4.30;2.05;;;;;;;;;;5047037;28;20033;-59
2023/05/07 01:54:33;;;;;;;4.55;1.92;;;;;;;;;;5043989;28;20049;-63
2023/05/07 01:56:59;;;;;;;4.20;2.13;;;;;;;;;;5052176;28;20059;-61
2023/05/07 01:59:26;;;;;;;3.80;1.70;;;;;;;;;;5050464;28;20033;-60
2023/05/07 02:01:53;;;;;;;5.65;2.22;;;;;;;;;;5050801;28;20485;-57
2023/05/07 02:04:20;;;;;;;6.93;2.17;;;;;;;;;;5047813;27;20029;-65
2023/05/07 02:06:46;;;;;;;3.92;2.05;;;;;;;;;;5045111;28;20436;-58
2023/05/07 02:09:14;;;;;;;4.70;2.05;;;;;;;;;;5043947;28;20047;-60
2023/05/07 02:11:41;;;;;;;4.15;1.83;;;;;;;;;;5044332;27;20037;-62
2023/05/07 02:14:08;;;;;;;5.05;2.10;;;;;;;;;;5042456;28;20047;-60
2023/05/07 02:16:34;;;;;;;5.90;2.42;;;;;;;;;;5040757;28;20056;-63
2023/05/07 02:19:01;;;;;;;4.68;2.38;;;;;;;;;;5044512;28;20037;-61
2023/05/07 02:21:28;;;;;;;4.05;2.08;;;;;;;;;;5041088;28;20033;-63
2023/05/07 02:23:55;;;;;;;5.13;2.50;;;;;;;;;;5042135;28;20140;-63
2023/05/07 02:26:21;;;;;;;5.13;2.38;;;;;;;;;;5043458;28;20033;-63
2023/05/07 02:28:48;;;;;;;5.55;2.38;;;;;;;;;;5040675;28;20040;-62
2023/05/07 02:31:15;;;;;;;4.93;2.40;;;;;;;;;;5044507;28;20061;-61
2023/05/07 02:33:41;;;;;;;7.00;2.53;;;;;;;;;;5042941;28;20051;-62
2023/05/07 02:36:09;;;;;;;7.20;2.70;;;;;;;;;;5043671;28;20053;-63
2023/05/07 02:38:36;;;;;;;4.40;2.40;;;;;;;;;;5042909;28;20124;-61
2023/05/07 02:41:03;;;;;;;7.70;2.88;;;;;;;;;;5044329;28;20033;-63
2023/05/07 02:43:29;;;;;;;4.80;2.72;;;;;;;;;;5042352;28;20040;-63
2023/05/07 02:46:05;;;;;;;6.40;2.75;;;;;;;;;;5043299;28;20178;-59
2023/05/07 02:48:32;;;;;;;5.35;2.78;;;;;;;;;;5042210;28;20044;-66
2023/05/07 02:50:59;;;;;;;4.93;2.67;;;;;;;;;;5043174;28;20500;-62
2023/05/07 02:53:26;;;;;;;5.82;2.83;;;;;;;;;;5041317;28;20033;-61
2023/05/07 02:55:56;;;;;;;6.35;2.88;;;;;;;;;;5042609;28;20052;-62
2023/05/07 02:58:23;;;;;;;5.75;2.40;;;;;;;;;;5043088;28;20041;-63
2023/05/07 03:00:50;;;;;;;5.72;2.92;;;;;;;;;;5041470;28;20029;-61
2023/05/07 03:03:17;;;;;;;5.70;2.88;;;;;;;;;;5043455;28;20158;-61
2023/05/07 03:05:43;;;;;;;5.70;2.88;;;;;;;;;;5040277;27;20067;-59
2023/05/07 03:08:10;;;;;;;8.73;2.88;;;;;;;;;;5042739;28;20471;-59
2023/05/07 03:10:37;;;;;;;5.35;2.90;;;;;;;;;;5042154;27;20548;-60
2023/05/07 03:13:04;;;;;;;6.10;2.80;;;;;;;;;;5057865;28;20048;-59
2023/05/07 03:15:31;;;;;;;7.95;2.75;;;;;;;;;;5041716;28;21344;-62
2023/05/07 03:17:58;;;;;;;5.75;2.88;;;;;;;;;;5042387;28;20057;-61
2023/05/07 03:20:24;;;;;;;9.35;2.90;;;;;;;;;;5042434;28;20490;-64
2023/05/07 03:22:51;;;;;;;7.22;2.70;;;;;;;;;;5041019;28;20040;-63
2023/05/07 03:25:18;;;;;;;5.97;3.30;;;;;;;;;;5043148;28;21010;-60
2023/05/07 03:27:44;;;;;;;8.90;2.72;;;;;;;;;;5043608;28;20052;-64
2023/05/07 03:30:12;;;;;;;6.18;2.90;;;;;;;;;;5043108;28;20094;-63
2023/05/07 03:32:38;;;;;;;7.65;3.10;;;;;;;;;;5044138;28;20488;-61
2023/05/07 03:35:05;;;;;;;7.30;3.20;;;;;;;;;;5042845;28;20045;-64
2023/05/07 03:37:32;;;;;;;10.93;3.53;;;;;;;;;;5042515;28;20500;-61
2023/05/07 03:39:59;;;;;;;7.63;3.60;;;;;;;;;;5046962;27;20032;-61
2023/05/07 03:42:27;;;;;;;8.07;3.78;;;;;;;;;;5047751;28;20078;-64
2023/05/07 03:44:53;;;;;;;6.20;3.33;;;;;;;;;;5049954;28;20324;-63
2023/05/07 03:47:20;;;;;;;5.82;3.55;;;;;;;;;;5046653;28;20045;-63
2023/05/07 03:49:48;;;;;;;6.38;3.70;;;;;;;;;;5049914;28;20033;-63
2023/05/07 03:52:15;;;;;;;10.68;3.90;;;;;;;;;;5049288;28;20033;-62
2023/05/07 03:54:42;;;;;;;5.90;3.25;;;;;;;;;;5051671;28;20049;-63
2023/05/07 03:57:08;;;;;;;5.55;3.53;;;;;;;;;;5048221;28;20045;-62
2023/05/07 03:59:35;;;;;;;8.52;3.60;;;;;;;;;;5060477;27;20036;-60
2023/05/07 04:02:02;;;;;;;8.10;3.90;;;;;;;;;;5048763;28;20064;-62
2023/05/07 04:04:32;;;;;;;6.93;3.55;;;;;;;;;;5046043;27;20037;-60
2023/05/07 04:07:03;;;;;;;5.65;3.60;;;;;;;;;;5047512;28;20084;-62
2023/05/07 04:09:30;;;;;;;8.27;4.03;;;;;;;;;;5047402;28;20101;-61
2023/05/07 04:11:57;;;;;;;6.20;3.60;;;;;;;;;;5049201;28;20028;-60
2023/05/07 04:14:23;;;;;;;7.38;3.75;;;;;;;;;;5049490;27;20060;-59
2023/05/07 04:16:50;;;;;;;7.75;3.95;;;;;;;;;;5047970;28;20451;-62
2023/05/07 04:19:17;;;;;;;8.13;4.00;;;;;;;;;;5048282;28;20041;-58
2023/05/07 04:21:43;;;;;;;6.07;3.40;;;;;;;;;;5048238;27;20045;-61
2023/05/07 04:24:10;;;;;;;9.18;3.67;;;;;;;;;;5046969;28;20087;-63
2023/05/07 04:26:37;;;;;;;7.20;3.75;;;;;;;;;;5047155;28;20462;-62
2023/05/07 04:29:04;;;;;;;6.53;3.55;;;;;;;;;;5047453;27;20052;-62
2023/05/07 04:31:31;;;;;;;9.63;3.80;;;;;;;;;;5046416;28;20509;-60
2023/05/07 04:33:58;;;;;;;7.45;3.63;;;;;;;;;;5048730;28;20528;-62
2023/05/07 04:36:28;;;;;;;7.88;3.88;;;;;;;;;;5048993;28;20135;-60
2023/05/07 04:38:55;;;;;;;5.97;3.60;;;;;;;;;;5049324;28;20041;-61
2023/05/07 04:41:23;;;;;;;6.40;3.45;;;;;;;;;;5047680;27;20116;-61
2023/05/07 04:43:51;;;;;;;7.35;4.00;;;;;;;;;;5046430;28;20045;-61
2023/05/07 04:46:18;;;;;;;7.68;3.38;;;;;;;;;;5049826;27;20072;-61
2023/05/07 04:48:45;;;;;;;7.45;3.60;;;;;;;;;;5046246;28;20040;-60
2023/05/07 04:51:11;;;;;;;5.70;3.50;;;;;;;;;;5043442;28;20156;-63
2023/05/07 04:53:42;;;;;;;6.07;3.45;;;;;;;;;;5043295;28;20060;-60
2023/05/07 04:56:09;;;;;;;8.18;4.00;;;;;;;;;;5045716;28;20126;-61
2023/05/07 04:58:36;;;;;;;6.90;3.42;;;;;;;;;;5042920;28;20115;-61
2023/05/07 05:01:02;;;;;;;8.27;3.47;;;;;;;;;;5048328;28;20163;-57
2023/05/07 05:03:29;;;;;;;7.90;3.67;;;;;;;;;;5048101;28;20108;-59
2023/05/07 05:05:59;;;;;;;9.32;3.30;;;;;;;;;;5047633;28;20032;-60
2023/05/07 05:08:25;;;;;;;6.57;3.17;;;;;;;;;;5046726;28;20041;-60
2023/05/07 05:10:52;;;;;;;6.10;3.85;;;;;;;;;;5043006;28;20276;-62
2023/05/07 05:13:19;;;;;;;5.40;3.03;;;;;;;;;;5043985;28;21037;-62
2023/05/07 05:15:45;;;;;;;8.63;3.08;;;;;;;;;;5044821;28;20037;-60
2023/05/07 05:18:12;;;;;;;5.45;3.00;;;;;;;;;;5045976;27;20040;-60
2023/05/07 05:20:39;;;;;;;8.75;3.25;;;;;;;;;;5044502;28;20047;-63
2023/05/07 05:23:06;;;;;;;7.85;3.40;;;;;;;;;;5058100;28;20049;-61
2023/05/07 05:25:32;;;;;;;7.03;3.33;;;;;;;;;;5036323;28;20053;-61
2023/05/07 05:28:01;;;;;;;9.70;3.13;;;;;;;;;;5041695;28;20379;-62
2023/05/07 05:30:28;;;;;;;6.05;3.20;;;;;;;;;;5043625;28;20048;-60
2023/05/07 05:32:55;;;;;;;6.10;3.20;;;;;;;;;;5042823;28;20474;-60
2023/05/07 05:35:21;;;;;;;7.05;3.25;;;;;;;;;;5044504;28;20066;-61
2023/05/07 05:37:48;;;;;;;6.57;3.35;;;;;;;;;;5043285;28;20049;-60
2023/05/07 05:40:15;;;;;;;6.07;3.47;;;;;;;;;;5044719;28;20097;-60
2023/05/07 05:42:41;;;;;;;5.85;3.17;;;;;;;;;;5042384;28;20082;-60
2023/05/07 05:45:08;;;;;;;8.10;3.53;;;;;;;;;;5044001;28;20041;-61
2023/05/07 05:47:35;;;;;;;7.85;3.20;;;;;;;;;;5043124;28;20478;-61
2023/05/07 05:50:01;;;;;;;8.93;2.97;;;;;;;;;;5043722;27;20044;-61
2023/05/07 05:52:28;;;;;;;5.75;3.47;;;;;;;;;;5043427;28;20249;-59
2023/05/07 05:54:55;;;;;;;7.22;3.60;;;;;;;;;;5046180;28;20048;-60
2023/05/07 05:57:21;;;;;;;5.30;3.25;;;;;;;;;;5044543;28;20101;-60
2023/05/07 05:59:48;;;;;;;6.38;3.17;;;;;;;;;;5043921;28;21772;-59
2023/05/07 06:02:15;;;;;;;7.25;3.50;;;;;;;;;;5042525;28;20040;-59
2023/05/07 06:04:42;;;;;;;8.25;3.63;;;;;;;;;;5044349;27;20040;-59
2023/05/07 06:07:09;;;;;;;6.18;3.50;;;;;;;;;;5044723;28;20119;-60
2023/05/07 06:09:35;;;;;;;5.63;3.05;;;;;;;;;;5042592;27;20109;-60
2023/05/07 06:12:02;;;;;;;6.07;3.20;;;;;;;;;;5041228;28;20124;-62
2023/05/07 06:14:29;;;;;;;5.22;3.22;;;;;;;;;;5042358;28;20590;-62
2023/05/07 06:16:56;;;;;;;8.35;3.40;;;;;;;;;;5043915;28;20045;-61
2023/05/07 06:19:23;;;;;;;8.23;3.30;;;;;;;;;;5042442;28;20045;-62
2023/05/07 06:21:50;;;;;;;5.53;3.00;;;;;;;;;;5044420;28;20623;-62
2023/05/07 06:24:17;;;;;;;8.70;3.17;;;;;;;;;;5044779;28;20033;-61
2023/05/07 06:26:44;;;;;;;6.45;3.45;;;;;;;;;;5042912;28;20491;-61
2023/05/07 06:29:10;;;;;;;7.35;3.38;;;;;;;;;;5042061;28;20482;-60
2023/05/07 06:31:37;;;;;;;5.57;3.45;;;;;;;;;;5042213;28;20079;-62
2023/05/07 06:34:04;;;;;;;6.78;3.60;;;;;;;;;;5042762;27;20064;-62
2023/05/07 06:36:31;;;;;;;6.13;3.35;;;;;;;;;;5041739;28;20478;-59
2023/05/07 06:38:58;;;;;;;7.78;3.80;;;;;;;;;;5042286;28;20093;-62
2023/05/07 06:41:25;;;;;;;8.43;4.20;;;;;;;;;;5044034;28;20406;-59
2023/05/07 06:43:52;;;;;;;7.43;3.42;;;;;;;;;;5042609;28;20040;-62
2023/05/07 06:46:19;;;;;;;8.00;4.00;;;;;;;;;;5059576;28;20324;-61
2023/05/07 06:48:45;;;;;;;6.10;3.88;;;;;;;;;;5043725;27;20045;-62
2023/05/07 06:51:12;;;;;;;6.80;3.97;;;;;;;;;;5043979;28;20059;-61
2023/05/07 06:53:39;;;;;;;6.32;3.92;;;;;;;;;;5042681;28;20075;-61
2023/05/07 06:56:05;;;;;;;7.55;4.05;;;;;;;;;;5045193;28;20049;-63
2023/05/07 06:58:32;;;;;;;7.00;4.00;;;;;;;;;;5042746;28;20040;-62
2023/05/07 07:00:59;;;;;;;9.85;4.20;;;;;;;;;;5044927;28;20032;-61
2023/05/07 07:03:26;;;;;;;7.68;4.32;;;;;;;;;;5043131;28;20033;-60
2023/05/07 07:05:53;;;;;;;7.45;3.80;;;;;;;;;;5044740;28;20071;-62
2023/05/07 07:08:21;;;;;;;6.70;3.50;;;;;;;;;;5043787;28;20381;-62
2023/05/07 07:10:48;;;;;;;7.07;3.95;;;;;;;;;;5042656;28;20094;-61
2023/05/07 07:13:14;;;;;;;7.35;3.95;;;;;;;;;;5041895;28;20036;-61
2023/05/07 07:15:41;;;;;;;5.50;3.63;;;;;;;;;;5042791;28;20132;-61
2023/05/07 07:18:08;;;;;;;7.38;3.80;;;;;;;;;;5042825;27;20045;-60
2023/05/07 07:20:34;;;;;;;6.28;4.15;;;;;;;;;;5043788;28;20153;-59
2023/05/07 07:23:01;;;;;;;8.30;3.90;;;;;;;;;;5042632;27;20556;-61
2023/05/07 07:25:28;;;;;;;6.90;4.07;;;;;;;;;;5044700;28;20036;-59
2023/05/07 07:27:54;;;;;;;6.70;4.57;;;;;;;;;;5042529;27;20044;-59
2023/05/07 07:30:21;;;;;;;8.32;4.18;;;;;;;;;;5043371;28;20114;-61
2023/05/07 07:32:48;;;;;;;6.30;3.95;;;;;;;;;;5040601;28;20665;-58
2023/05/07 07:35:14;;;;;;;8.77;3.80;;;;;;;;;;5042066;28;20040;-61
2023/05/07 07:37:41;;;;;;;7.07;3.65;;;;;;;;;;5040563;28;20126;-63
2023/05/07 07:40:08;;;;;;;7.25;4.00;;;;;;;;;;5042841;28;20032;-61
2023/05/07 07:42:34;;;;;;;6.93;3.97;;;;;;;;;;5040778;27;20041;-62
2023/05/07 07:45:02;;;;;;;6.13;4.10;;;;;;;;;;5041418;28;20048;-63
2023/05/07 07:47:29;;;;;;;7.95;3.72;;;;;;;;;;5041173;28;20033;-60
2023/05/07 07:49:56;;;;;;;6.75;4.00;;;;;;;;;;5042512;28;20037;-62
2023/05/07 07:52:22;;;;;;;11.40;4.47;;;;;;;;;;5041625;28;20520;-61
2023/05/07 07:54:49;;;;;;;8.38;4.25;;;;;;;;;;5040598;28;20356;-59
2023/05/07 07:57:16;;;;;;;8.07;4.10;;;;;;;;;;5042061;28;20053;-60
2023/05/07 07:59:43;;;;;;;8.00;4.30;;;;;;;;;;5040221;27;20112;-61
2023/05/07 08:02:10;;;;;;;8.68;4.75;;;;;;;;;;5041975;28;20033;-60
2023/05/07 08:04:37;;;;;;;7.75;4.75;;;;;;;;;;5039096;28;20128;-62
2023/05/07 08:07:04;;;;;;;8.23;5.15;;;;;;;;;;5041695;28;20049;-60
2023/05/07 08:09:30;;;;;;;8.52;5.20;;;;;;;;;;5043094;27;20032;-61
2023/05/07 08:11:57;;;;;;;7.68;4.65;;;;;;;;;;5040929;28;20065;-61
2023/05/07 08:14:24;;;;;;;9.75;5.47;;;;;;;;;;5042100;27;20500;-61
2023/05/07 08:16:51;;;;;;;10.38;4.65;;;;;;;;;;5042768;28;20520;-58
2023/05/07 08:19:17;;;;;;;6.35;4.45;;;;;;;;;;5041297;28;20564;-61
2023/05/07 08:21:44;;;;;;;7.00;4.63;;;;;;;;;;5040585;28;20095;-59
2023/05/07 08:24:11;;;;;;;7.00;4.57;;;;;;;;;;5042315;28;21260;-61
2023/05/07 08:26:39;;;;;;;6.57;4.50;;;;;;;;;;5044875;28;20041;-62
2023/05/07 08:29:05;;;;;;;7.57;4.97;;;;;;;;;;5046493;27;20048;-59
2023/05/07 08:31:32;;;;;;;8.18;5.00;;;;;;;;;;5044322;28;20068;-60
2023/05/07 08:33:59;;;;;;;7.50;5.10;;;;;;;;;;5043912;28;20086;-61
2023/05/07 08:36:26;;;;;;;9.15;5.40;;;;;;;;;;5045821;28;20048;-62
2023/05/07 08:38:53;;;;;;;9.73;6.30;;;;;;;;;;5046470;28;20441;-61
2023/05/07 08:41:20;;;;;;;13.55;6.60;;;;;;;;;;5046027;28;20041;-62
2023/05/07 08:43:49;;;;;;;11.73;6.90;;;;;;;;;;5043907;28;20127;-61
2023/05/07 08:46:19;;;;;;;11.38;6.78;;;;;;;;;;5046571;28;20513;-62
2023/05/07 08:48:49;;;;;;;9.35;6.78;;;;;;;;;;5044179;28;20379;-60
2023/05/07 08:51:17;;;;;;;10.70;6.75;;;;;;;;;;5045751;28;20084;-61
2023/05/07 08:53:43;;;;;;;8.88;6.22;;;;;;;;;;5044218;28;20044;-61
2023/05/07 08:56:10;;;;;;;9.35;6.38;;;;;;;;;;5045034;28;20127;-61
2023/05/07 08:58:37;;;;;;;8.15;6.00;;;;;;;;;;5044377;28;20494;-61
2023/05/07 09:01:06;;;;;;;12.57;6.20;;;;;;;;;;5046755;28;20049;-61
2023/05/07 09:03:32;;;;;;;8.90;6.03;;;;;;;;;;5045101;27;20451;-59
2023/05/07 09:05:59;;;;;;;8.73;6.35;;;;;;;;;;5044373;28;20041;-61
2023/05/07 09:08:28;;;;;;;8.40;6.28;;;;;;;;;;5046721;28;20084;-60
2023/05/07 09:10:55;;;;;;;8.43;6.30;;;;;;;;;;5044479;28;20036;-61
2023/05/07 09:13:22;;;;;;;11.13;7.18;;;;;;;;;;5043881;28;20433;-59
2023/05/07 09:15:48;;;;;;;12.10;6.88;;;;;;;;;;5043835;28;20032;-63
2023/05/07 09:18:15;;;;;;;11.10;6.72;;;;;;;;;;5041960;28;20032;-60
2023/05/07 09:20:42;;;;;;;10.52;7.10;;;;;;;;;;5044043;28;20036;-61
2023/05/07 09:23:08;;;;;;;13.82;6.78;;;;;;;;;;5045078;28;20124;-62
2023/05/07 09:25:36;;;;;;;10.20;6.88;;;;;;;;;;5044811;28;20044;-61
2023/05/07 09:28:04;;;;;;;10.73;7.32;;;;;;;;;;5048240;27;20044;-61
2023/05/07 09:30:34;;;;;;;9.98;7.18;;;;;;;;;;5046224;28;20056;-58
2023/05/07 09:33:02;;;;;;;10.02;7.47;;;;;;;;;;5044918;28;20049;-60
2023/05/07 09:35:29;;;;;;;12.68;7.50;;;;;;;;;;5043261;28;20481;-57
2023/05/07 09:37:57;;;;;;;11.57;7.50;;;;;;;;;;5044592;28;20051;-61
2023/05/07 09:40:24;;;;;;;9.75;6.60;;;;;;;;;;5044503;28;20048;-63
2023/05/07 09:42:52;;;;;;;9.52;7.10;;;;;;;;;;5044327;28;20113;-60
2023/05/07 09:45:29;;;;;;;12.10;7.50;;;;;;;;;;5043280;28;20068;-62
2023/05/07 09:47:56;;;;;;;9.93;7.03;;;;;;;;;;5042789;28;20077;-59
2023/05/07 09:50:30;;;;;;;11.35;7.97;;;;;;;;;;5042675;28;20048;-63
2023/05/07 09:52:56;;;;;;;;;;;;;;;;;;5060793;28;20186;-59
2023/05/07 09:55:23;;;;;;;10.27;6.65;;;;;;;;;;5059390;28;19963;-65
2023/05/07 09:57:55;;;;;;;9.82;6.60;;;;;;;;;;5059390;28;20536;-64
2023/05/07 10:00:22;;;;;;;13.52;6.57;;;;;;;;;;5060543;28;20508;-62
2023/05/07 10:02:51;;;;;;;11.45;7.10;;;;;;;;;;5060160;28;20040;-59
2023/05/07 10:05:22;;;;;;;11.80;8.02;;;;;;;;;;5059613;28;20051;-63
2023/05/07 10:07:49;;;;;;;11.30;8.38;;;;;;;;;;5059792;28;20112;-63
2023/05/07 10:10:16;;;;;;;14.75;10.30;;;;;;;;;;5060677;28;20040;-61
2023/05/07 10:12:42;;;;;;;13.32;10.13;;;;;;;;;;5057842;28;20807;-60
2023/05/07 10:15:10;;;;;;;15.98;10.52;;;;;;;;;;5059985;28;20029;-60
2023/05/07 10:17:38;;;;;;;14.93;11.18;;;;;;;;;;5060227;28;20070;-59
2023/05/07 10:20:05;;;;;;;13.63;10.43;;;;;;;;;;5059629;28;20123;-63
2023/05/07 10:22:52;;;;;;;13.90;10.52;;;;;;;;;;5060078;28;20394;-60
2023/05/07 10:25:24;;;;;;;13.77;10.13;;;;;;;;;;5043091;27;20048;-59
2023/05/07 10:27:51;;;;;;;14.95;11.07;;;;;;;;;;5042127;28;20041;-62
2023/05/07 10:30:24;;;;;;;16.35;11.52;;;;;;;;;;5042930;28;20461;-61
2023/05/07 10:32:54;;;;;;;17.23;11.48;;;;;;;;;;5042187;28;20052;-58
2023/05/07 10:35:26;;;;;;;16.45;11.82;;;;;;;;;;5043817;28;20800;-62
2023/05/07 10:37:53;;;;;;;15.25;11.15;;;;;;;;;;5042504;28;20044;-61
2023/05/07 10:40:21;;;;;;;15.95;10.75;;;;;;;;;;5044907;28;20039;-59
2023/05/07 10:43:01;;;;;;;15.65;11.00;;;;;;;;;;5043566;28;20033;-60
2023/05/07 10:45:28;;;;;;;15.05;10.77;;;;;;;;;;5042238;27;20045;-62
2023/05/07 10:48:11;;;;;;;12.80;10.15;;;;;;;;;;5043413;28;20071;-59
2023/05/07 10:50:39;;;;;;;10.70;8.27;;;;;;;;;;5041367;28;20048;-59
2023/05/07 10:53:18;;;;;;;14.75;10.30;;;;;;;;;;5041914;28;20048;-61
2023/05/07 10:55:45;;;;;;;14.38;9.18;;;;;;;;;;5041534;28;21021;-61
2023/05/07 10:58:25;;;;;;;13.68;9.98;;;;;;;;;;5042128;28;20060;-59
2023/05/07 11:00:57;;;;;;;14.15;9.60;;;;;;;;;;5042685;28;20787;-60
2023/05/07 11:03:23;;;;;;;12.93;9.65;;;;;;;;;;5042070;28;20446;-59
2023/05/07 11:06:10;;;;;;;13.85;9.77;;;;;;;;;;5043431;28;20033;-62
2023/05/07 11:08:56;;;;;;;12.98;9.60;;;;;;;;;;5044340;28;20037;-62
2023/05/07 11:11:42;;;;;;;11.07;9.00;;;;;;;;;;5041751;28;20040;-61
2023/05/07 11:14:09;;;;;;;12.40;9.10;;;;;;;;;;5044288;28;20044;-61
2023/05/07 11:16:36;;;;;;;13.57;8.57;;;;;;;;;;5043085;28;20141;-59
2023/05/07 11:19:03;;;;;;;11.65;7.63;;;;;;;;;;5040601;28;20375;-60
2023/05/07 11:21:36;;;;;;;12.55;7.50;;;;;;;;;;5051284;28;20119;-59
2023/05/07 11:24:03;;;;;;;13.00;6.80;;;;;;;;;;5043817;28;20033;-59
2023/05/07 11:26:31;;;;;;;11.90;6.55;;;;;;;;;;5040178;28;20094;-60
2023/05/07 11:29:00;;;;;;;11.48;6.75;;;;;;;;;;5042981;28;20519;-60
2023/05/07 11:31:29;;;;;;;11.10;6.55;;;;;;;;;;5041442;28;20053;-59
2023/05/07 11:33:55;;;;;;;10.48;6.78;;;;;;;;;;5043487;28;20069;-63
2023/05/07 11:36:24;;;;;;;11.15;7.00;;;;;;;;;;5042276;27;20077;-61
2023/05/07 11:38:51;;;;;;;9.90;6.28;;;;;;;;;;5043113;28;20123;-60
2023/05/07 11:41:19;;;;;;;9.05;6.22;;;;;;;;;;5040474;28;20154;-60
2023/05/07 11:43:56;;;;;;;9.63;5.90;;;;;;;;;;5053450;28;20758;-59
2023/05/07 11:46:23;;;;;;;8.25;5.93;;;;;;;;;;5060400;27;20053;-55
2023/05/07 11:48:49;;;;;;;17.25;8.77;;;;;;;;;;5062552;28;20479;-57
2023/05/07 11:51:19;;;;;;;10.88;6.53;;;;;;;;;;5060624;28;20040;-62
2023/05/07 11:53:49;;;;;;;8.98;6.63;;;;;;;;;;5062339;28;20532;-62
2023/05/07 11:56:17;;;;;;;9.00;5.90;;;;;;;;;;5062531;28;20100;-60
2023/05/07 11:58:45;;;;;;;9.68;6.72;;;;;;;;;;5061127;28;20130;-59
2023/05/07 12:01:12;;;;;;;11.30;5.97;;;;;;;;;;5061670;28;20082;-57
2023/05/07 12:03:45;;;;;;;9.88;6.20;;;;;;;;;;5062613;28;20106;-60
2023/05/07 12:06:12;;;;;;;10.50;6.18;;;;;;;;;;5060106;28;20040;-61
2023/05/07 12:08:40;;;;;;;9.40;6.07;;;;;;;;;;5062557;28;20040;-59
2023/05/07 12:11:11;;;;;;;9.00;6.43;;;;;;;;;;5062946;28;20618;-58
2023/05/07 12:13:39;;;;;;;12.77;6.75;;;;;;;;;;5062689;28;20040;-59
2023/05/07 12:16:07;;;;;;;9.77;6.43;;;;;;;;;;5019013;28;20594;-59
2023/05/07 12:18:35;;;;;;;10.57;6.45;;;;;;;;;;5014617;28;20128;-59
2023/05/07 12:21:02;;;;;;;11.50;6.63;;;;;;;;;;5047262;28;20040;-62
2023/05/07 12:23:29;;;;;;;10.48;6.97;;;;;;;;;;5061426;28;20528;-59
2023/05/07 12:25:56;;;;;;;11.45;8.00;;;;;;;;;;5062980;28;20105;-62
2023/05/07 12:28:23;;;;;;;11.98;7.18;;;;;;;;;;5061324;28;20040;-60
2023/05/07 12:30:51;;;;;;;14.02;7.70;;;;;;;;;;5079079;28;20043;-59
2023/05/07 12:33:25;;;;;;;10.68;7.18;;;;;;;;;;5064929;28;20295;-63
2023/05/07 12:35:53;;;;;;;12.07;8.45;;;;;;;;;;5066103;27;20040;-61
2023/05/07 12:38:20;;;;;;;13.23;8.27;;;;;;;;;;5065386;28;20106;-63
2023/05/07 12:40:50;;;;;;;14.27;8.13;;;;;;;;;;5061083;28;20041;-58
2023/05/07 12:43:21;;;;;;;15.75;8.07;;;;;;;;;;5066501;28;20048;-58
2023/05/07 12:45:50;;;;;;;14.32;8.30;;;;;;;;;;5056917;28;20039;-61
2023/05/07 12:48:16;;;;;;;13.63;8.30;;;;;;;;;;5066045;28;20067;-59
2023/05/07 12:50:43;;;;;;;11.73;8.25;;;;;;;;;;5064867;28;21859;-59
2023/05/07 12:53:11;;;;;;;11.38;7.47;;;;;;;;;;5063736;28;20048;-60
2023/05/07 12:55:58;;;;;;;13.93;8.05;;;;;;;;;;5085336;27;20271;-59
2023/05/07 12:58:31;;;;;;;13.27;7.38;;;;;;;;;;5084469;28;20051;-57
2023/05/07 13:01:19;;;;;;;10.00;6.43;;;;;;;;;;5047420;28;20136;-60
2023/05/07 13:03:50;;;;;;;10.68;6.88;;;;;;;;;;5045771;28;20480;-57
2023/05/07 13:06:16;;;;;;;11.85;6.93;;;;;;;;;;5029710;28;20044;-58
2023/05/07 13:08:43;;;;;;;11.27;6.40;;;;;;;;;;5037465;28;20736;-58
2023/05/07 13:11:10;;;;;;;8.77;5.90;;;;;;;;;;5044893;28;20098;-58
2023/05/07 13:13:38;;;;;;;8.02;5.88;;;;;;;;;;5046632;28;20037;-58
2023/05/07 13:16:06;;;;;;;10.48;5.18;;;;;;;;;;5045318;28;20045;-58
2023/05/07 13:18:33;;;;;;;9.93;5.38;;;;;;;;;;5031331;28;20146;-57
2023/05/07 13:21:00;;;;;;;8.13;5.05;;;;;;;;;;5031059;28;20037;-60
2023/05/07 13:23:27;;;;;;;7.50;4.78;;;;;;;;;;5045820;28;20547;-61
2023/05/07 13:25:55;;;;;;;8.23;5.05;;;;;;;;;;5047912;28;20032;-62
2023/05/07 13:28:22;;;;;;;8.85;5.32;;;;;;;;;;5027651;28;20068;-60
2023/05/07 13:30:51;;;;;;;6.78;4.68;;;;;;;;;;5025900;28;20045;-60
2023/05/07 13:33:18;;;;;;;10.07;4.93;;;;;;;;;;5029212;28;20068;-63
2023/05/07 13:35:45;;;;;;;9.77;4.85;;;;;;;;;;5043722;28;20043;-59
2023/05/07 13:38:11;;;;;;;7.63;4.93;;;;;;;;;;5058155;28;20052;-61
2023/05/07 13:40:38;;;;;;;8.80;4.43;;;;;;;;;;5042663;28;20366;-61
2023/05/07 13:43:06;;;;;;;8.60;4.70;;;;;;;;;;5044007;28;20136;-65
2023/05/07 13:45:33;;;;;;;8.80;4.80;;;;;;;;;;5042221;28;20040;-61
2023/05/07 13:48:00;;;;;;;7.60;5.45;;;;;;;;;;5043355;28;20558;-61
2023/05/07 13:50:27;;;;;;;7.70;4.88;;;;;;;;;;5043534;28;20043;-60
2023/05/07 13:52:53;;;;;;;7.80;4.82;;;;;;;;;;5059843;28;20041;-60
2023/05/07 13:55:22;;;;;;;12.10;4.93;;;;;;;;;;5044864;28;20101;-59
2023/05/07 13:57:49;;;;;;;7.00;4.43;;;;;;;;;;5043431;28;20056;-59
2023/05/07 14:00:16;;;;;;;8.70;4.65;;;;;;;;;;5047122;28;20040;-61
2023/05/07 14:02:43;;;;;;;9.75;4.65;;;;;;;;;;5043600;28;20037;-60
2023/05/07 14:05:10;;;;;;;8.50;4.50;;;;;;;;;;5043506;28;20101;-58
2023/05/07 14:07:37;;;;;;;11.75;5.05;;;;;;;;;;5044467;28;20051;-62
2023/05/07 14:10:04;;;;;;;9.07;4.22;;;;;;;;;;5042514;28;20045;-63
2023/05/07 14:12:30;;;;;;;9.98;4.72;;;;;;;;;;5042640;28;20049;-59
2023/05/07 14:14:57;;;;;;;6.57;4.15;;;;;;;;;;5040595;28;20095;-62
2023/05/07 14:17:26;;;;;;;5.72;3.67;;;;;;;;;;5053826;28;20096;-63
2023/05/07 14:20:12;;;;;;;6.85;4.45;;;;;;;;;;5041679;28;20040;-61
2023/05/07 14:22:39;;;;;;;9.18;4.60;;;;;;;;;;5021995;28;20037;-61
2023/05/07 14:25:06;;;;;;;6.00;3.95;;;;;;;;;;5022608;28;21093;-61
2023/05/07 14:27:33;;;;;;;9.18;4.45;;;;;;;;;;5021396;28;20033;-59
2023/05/07 14:29:59;;;;;;;6.70;4.15;;;;;;;;;;4992541;28;20116;-63
2023/05/07 14:32:26;;;;;;;7.65;4.07;;;;;;;;;;5007845;28;20048;-58
2023/05/07 14:34:53;;;;;;;8.18;4.07;;;;;;;;;;5022399;28;20037;-60
2023/05/07 14:37:19;;;;;;;6.30;3.70;;;;;;;;;;5023486;28;20057;-58
2023/05/07 14:39:46;;;;;;;9.05;4.00;;;;;;;;;;5035262;28;20038;-62
2023/05/07 14:42:13;;;;;;;6.15;3.90;;;;;;;;;;5001882;28;20040;-60